createdAt,value
2022-12-08T00:01:39.710Z,80.35
2022-12-08T00:04:06.825Z,81.13
2022-12-08T00:06:54.027Z,80.55
2022-12-08T00:09:26.590Z,80.85
2022-12-08T00:11:56.491Z,81.03
2022-12-08T00:14:26.506Z,81.50
2022-12-08T00:16:54.645Z,81.20
2022-12-08T00:19:22.217Z,79.68
2022-12-08T00:21:49.205Z,80.68
2022-12-08T00:24:16.100Z,80.75
2022-12-08T00:26:44.403Z,81.88
2022-12-08T00:29:17.009Z,79.95
2022-12-08T00:31:44.423Z,80.03
2022-12-08T00:34:12.191Z,81.22
2022-12-08T00:36:39.043Z,80.93
2022-12-08T00:39:06.277Z,80.78
2022-12-08T00:41:51.731Z,79.95
2022-12-08T00:44:19.986Z,80.38
2022-12-08T00:46:47.673Z,80.43
2022-12-08T00:49:15.611Z,81.05
2022-12-08T00:51:42.900Z,80.18
2022-12-08T00:54:10.675Z,80.22
2022-12-08T00:56:38.359Z,80.38
2022-12-08T00:59:06.977Z,80.28
2022-12-08T01:01:36.089Z,79.97
2022-12-08T01:04:04.584Z,80.65
2022-12-08T01:06:31.657Z,81.00
2022-12-08T01:08:58.688Z,80.47
2022-12-08T01:11:25.625Z,80.15
2022-12-08T01:13:53.803Z,82.20
2022-12-08T01:16:21.947Z,80.30
2022-12-08T01:18:50.359Z,81.50
2022-12-08T01:21:17.647Z,81.97
2022-12-08T01:23:44.564Z,81.88
2022-12-08T01:26:13.632Z,80.47
2022-12-08T01:28:41.216Z,80.00
2022-12-08T01:31:12.513Z,81.70
2022-12-08T01:36:09.045Z,80.00
2022-12-08T01:38:35.972Z,79.30
2022-12-08T01:41:02.852Z,79.45
2022-12-08T01:43:57.625Z,81.43
2022-12-08T01:46:25.238Z,80.20
2022-12-08T01:48:56.614Z,81.80
2022-12-08T01:53:52.496Z,79.43
2022-12-08T01:56:25.608Z,80.28
2022-12-08T01:58:54.427Z,80.28
2022-12-08T02:01:21.775Z,80.03
2022-12-08T02:03:55.678Z,81.03
2022-12-08T02:06:24.225Z,81.32
2022-12-08T02:08:52.088Z,80.32
2022-12-08T02:11:19.007Z,80.90
2022-12-08T02:13:47.545Z,80.05
2022-12-08T02:16:28.007Z,80.32
2022-12-08T02:19:30.289Z,82.75
2022-12-08T02:22:04.600Z,80.72
2022-12-08T02:24:38.560Z,80.40
2022-12-08T02:27:25.258Z,80.47
2022-12-08T02:30:07.573Z,80.63
2022-12-08T02:33:19.727Z,80.05
2022-12-08T02:35:56.552Z,79.82
2022-12-08T02:38:32.922Z,80.07
2022-12-08T02:41:07.657Z,79.53
2022-12-08T02:43:42.008Z,80.80
2022-12-08T02:46:13.292Z,80.85
2022-12-08T02:48:40.371Z,80.25
2022-12-08T02:51:08.721Z,79.45
2022-12-08T02:53:36.984Z,81.10
2022-12-08T02:56:15.038Z,81.68
2022-12-08T02:59:04.305Z,79.78
2022-12-08T03:01:59.091Z,79.38
2022-12-08T03:04:33.619Z,79.43
2022-12-08T03:07:07.280Z,79.55
2022-12-08T03:09:39.828Z,80.45
2022-12-08T03:12:16.129Z,80.35
2022-12-08T03:14:48.432Z,79.47
2022-12-08T03:17:18.152Z,79.28
2022-12-08T03:19:48.204Z,79.78
2022-12-08T03:22:19.825Z,80.15
2022-12-08T03:24:47.113Z,80.13
2022-12-08T03:27:20.573Z,78.97
2022-12-08T03:29:49.353Z,79.65
2022-12-08T03:32:22.669Z,80.20
2022-12-08T03:34:51.571Z,79.90
2022-12-08T03:37:20.898Z,78.45
2022-12-08T03:39:47.909Z,79.32
2022-12-08T03:42:14.782Z,79.47
2022-12-08T03:44:41.684Z,79.53
2022-12-08T03:47:08.538Z,80.15
2022-12-08T03:49:35.441Z,79.28
2022-12-08T03:52:02.347Z,79.22
2022-12-08T03:54:30.723Z,79.72
2022-12-08T03:56:57.569Z,79.25
2022-12-08T03:59:24.663Z,80.15
2022-12-08T04:01:51.606Z,79.45
2022-12-08T04:04:19.043Z,80.30
2022-12-08T04:06:46.069Z,79.55
2022-12-08T04:09:13.188Z,79.88
2022-12-08T04:11:41.679Z,80.45
2022-12-08T04:14:08.521Z,80.03
2022-12-08T04:16:35.689Z,79.03
2022-12-08T04:19:02.689Z,79.35
2022-12-08T04:21:29.632Z,79.53
2022-12-08T04:24:00.986Z,79.97
2022-12-08T04:26:28.544Z,79.93
2022-12-08T04:28:56.828Z,79.47
2022-12-08T04:31:23.746Z,78.90
2022-12-08T04:33:50.696Z,80.45
2022-12-08T04:36:17.581Z,79.18
2022-12-08T04:38:44.426Z,81.30
2022-12-08T04:41:11.503Z,79.25
2022-12-08T04:43:38.451Z,79.03
2022-12-08T04:46:08.806Z,80.05
2022-12-08T04:48:37.993Z,79.03
2022-12-08T04:51:05.375Z,80.15
2022-12-08T04:53:32.628Z,79.45
2022-12-08T04:55:59.479Z,79.60
2022-12-08T04:58:26.353Z,80.07
2022-12-08T05:00:53.342Z,79.75
2022-12-08T05:03:28.348Z,80.32
2022-12-08T05:05:55.924Z,79.05
2022-12-08T05:08:22.890Z,79.60
2022-12-08T05:10:49.790Z,79.07
2022-12-08T05:13:16.668Z,79.47
2022-12-08T05:15:43.667Z,79.00
2022-12-08T05:18:10.587Z,79.20
2022-12-08T05:20:38.855Z,79.22
2022-12-08T05:23:05.805Z,79.20
2022-12-08T05:25:32.652Z,79.50
2022-12-08T05:28:32.317Z,78.68
2022-12-08T05:30:46.674Z,78.57
2022-12-08T05:33:13.632Z,79.28
2022-12-08T05:35:41.898Z,79.38
2022-12-08T05:38:09.509Z,79.05
2022-12-08T05:40:38.097Z,79.15
2022-12-08T05:43:05.015Z,78.80
2022-12-08T05:45:32.050Z,79.10
2022-12-08T05:47:59.298Z,78.75
2022-12-08T05:50:26.178Z,78.78
2022-12-08T05:52:56.660Z,78.88
2022-12-08T05:55:23.589Z,78.93
2022-12-08T05:57:50.448Z,79.75
2022-12-08T06:00:18.279Z,78.35
2022-12-08T06:02:45.288Z,79.30
2022-12-08T06:05:12.286Z,79.57
2022-12-08T06:07:39.612Z,78.47
2022-12-08T06:10:09.124Z,79.38
2022-12-08T06:12:36.136Z,79.13
2022-12-08T06:15:03.163Z,79.25
2022-12-08T06:17:30.033Z,78.85
2022-12-08T06:19:56.953Z,79.93
2022-12-08T06:22:23.858Z,79.03
2022-12-08T06:24:50.696Z,79.22
2022-12-08T06:27:18.960Z,80.35
2022-12-08T06:29:45.857Z,79.60
2022-12-08T06:32:12.799Z,79.88
2022-12-08T06:34:39.742Z,79.40
2022-12-08T06:37:06.644Z,80.60
2022-12-08T06:39:33.533Z,79.47
2022-12-08T06:42:19.464Z,80.22
2022-12-08T06:44:48.151Z,80.05
2022-12-08T06:47:15.034Z,80.05
2022-12-08T06:49:41.934Z,80.13
2022-12-08T06:52:08.859Z,80.22
2022-12-08T06:54:35.716Z,79.70
2022-12-08T06:57:02.584Z,79.72
2022-12-08T06:59:29.457Z,79.65
2022-12-08T07:01:57.714Z,79.38
2022-12-08T07:04:24.647Z,79.88
2022-12-08T07:06:51.534Z,79.78
2022-12-08T07:09:18.524Z,79.72
2022-12-08T07:11:45.382Z,80.32
2022-12-08T07:14:12.896Z,79.75
2022-12-08T07:16:39.803Z,80.35
2022-12-08T07:19:08.123Z,79.70
2022-12-08T07:21:35.021Z,80.95
2022-12-08T07:24:02.674Z,81.15
2022-12-08T07:26:29.589Z,80.32
2022-12-08T07:28:56.563Z,80.45
2022-12-08T07:31:25.263Z,80.38
2022-12-08T07:33:52.827Z,80.40
2022-12-08T07:36:21.635Z,81.20
2022-12-08T07:38:49.488Z,80.47
2022-12-08T07:41:18.540Z,81.63
2022-12-08T07:43:46.004Z,81.57
2022-12-08T07:46:13.627Z,80.85
2022-12-08T07:48:40.814Z,80.85
2022-12-08T07:51:08.422Z,81.72
2022-12-08T07:53:36.799Z,81.72
2022-12-08T07:56:06.654Z,79.95
2022-12-08T07:58:33.752Z,80.70
2022-12-08T08:01:00.924Z,80.97
2022-12-08T08:03:27.938Z,81.55
2022-12-08T08:05:54.840Z,80.75
2022-12-08T08:08:21.901Z,80.00
2022-12-08T08:10:50.109Z,80.15
2022-12-08T08:13:17.646Z,80.43
2022-12-08T08:15:44.587Z,80.13
2022-12-08T08:18:11.715Z,82.40
2022-12-08T08:20:38.669Z,80.82
2022-12-08T08:23:05.599Z,80.65
2022-12-08T08:25:32.438Z,80.25
2022-12-08T08:28:00.729Z,80.75
2022-12-08T08:30:27.633Z,80.57
2022-12-08T08:32:54.480Z,81.05
2022-12-08T08:35:21.340Z,81.70
2022-12-08T08:37:49.354Z,80.18
2022-12-08T08:40:16.896Z,80.35
2022-12-08T08:42:43.767Z,80.63
2022-12-08T08:45:12.304Z,80.75
2022-12-08T08:47:39.238Z,82.00
2022-12-08T08:50:08.032Z,81.15
2022-12-08T08:52:35.354Z,80.63
2022-12-08T08:55:04.137Z,81.15
2022-12-08T08:57:31.071Z,80.97
2022-12-08T08:59:57.979Z,80.38
2022-12-08T09:02:26.192Z,80.65
2022-12-08T09:04:53.330Z,80.75
2022-12-08T09:07:20.304Z,80.22
2022-12-08T09:09:47.174Z,80.22
2022-12-08T09:12:14.189Z,80.82
2022-12-08T09:14:41.342Z,80.63
2022-12-08T09:17:08.908Z,80.30
2022-12-08T09:19:37.514Z,80.32
2022-12-08T09:22:05.462Z,80.35
2022-12-08T09:24:32.434Z,79.80
2022-12-08T09:26:59.499Z,80.78
2022-12-08T09:29:31.037Z,80.13
2022-12-08T09:32:01.052Z,80.05
2022-12-08T09:34:28.023Z,79.78
2022-12-08T09:36:56.281Z,80.80
2022-12-08T09:39:23.163Z,80.03
2022-12-08T09:41:53.973Z,80.88
2022-12-08T09:44:40.512Z,80.45
2022-12-08T09:47:17.751Z,80.03
2022-12-08T09:49:50.034Z,80.25
2022-12-08T09:52:25.103Z,81.18
2022-12-08T09:54:52.517Z,79.85
2022-12-08T09:57:22.667Z,80.57
2022-12-08T09:59:55.819Z,81.05
2022-12-08T10:02:24.791Z,80.40
2022-12-08T10:04:54.309Z,80.55
2022-12-08T10:07:32.346Z,79.88
2022-12-08T10:10:04.157Z,80.25
2022-12-08T10:12:38.017Z,80.78
2022-12-08T10:15:20.285Z,80.28
2022-12-08T10:17:49.515Z,80.93
2022-12-08T10:20:19.148Z,79.85
2022-12-08T10:22:53.252Z,79.82
2022-12-08T10:25:25.959Z,80.25
2022-12-08T10:27:54.830Z,80.22
2022-12-08T10:30:22.626Z,80.47
2022-12-08T10:32:51.067Z,79.55
2022-12-08T10:35:20.268Z,80.47
2022-12-08T10:37:57.869Z,79.93
2022-12-08T10:40:27.577Z,79.75
2022-12-08T10:42:59.752Z,79.97
2022-12-08T10:45:29.284Z,80.15
2022-12-08T10:48:00.036Z,79.63
2022-12-08T10:50:35.458Z,79.97
2022-12-08T10:53:15.627Z,80.43
2022-12-08T10:55:45.312Z,80.85
2022-12-08T10:58:30.520Z,80.00
2022-12-08T11:01:01.823Z,79.50
2022-12-08T11:03:31.274Z,80.13
2022-12-08T11:06:05.393Z,80.38
2022-12-08T11:08:47.135Z,79.80
2022-12-08T11:11:14.269Z,79.90
2022-12-08T11:13:42.155Z,80.32
2022-12-08T11:16:13.651Z,79.88
2022-12-08T11:18:42.786Z,80.18
2022-12-08T11:21:13.126Z,80.18
2022-12-08T11:23:43.490Z,81.50
2022-12-08T11:26:20.719Z,80.00
2022-12-08T11:28:47.648Z,79.95
2022-12-08T11:31:26.015Z,79.93
2022-12-08T11:33:53.081Z,80.10
2022-12-08T11:36:23.758Z,80.25
2022-12-08T11:38:56.217Z,80.63
2022-12-08T11:41:27.234Z,80.10
2022-12-08T11:44:02.333Z,79.88
2022-12-08T11:46:35.786Z,80.68
2022-12-08T11:49:07.231Z,80.13
2022-12-08T11:51:38.055Z,81.70
2022-12-08T11:54:22.650Z,80.05
2022-12-08T11:56:52.625Z,79.43
2022-12-08T11:59:26.447Z,79.90
2022-12-08T12:01:53.721Z,79.55
2022-12-08T12:04:26.483Z,79.82
2022-12-08T12:07:24.562Z,80.18
2022-12-08T12:10:09.748Z,79.78
2022-12-08T12:12:55.792Z,80.40
2022-12-08T12:15:39.862Z,79.95
2022-12-08T12:18:16.742Z,80.10
2022-12-08T12:20:51.699Z,79.53
2022-12-08T12:23:23.330Z,80.03
2022-12-08T12:25:56.732Z,80.30
2022-12-08T12:28:26.528Z,79.60
2022-12-08T12:30:59.038Z,80.45
2022-12-08T12:33:26.965Z,80.05
2022-12-08T12:35:57.052Z,80.25
2022-12-08T12:38:45.870Z,80.15
2022-12-08T12:41:16.939Z,79.55
2022-12-08T12:44:09.211Z,79.65
2022-12-08T12:46:55.295Z,80.80
2022-12-08T12:50:13.818Z,80.18
2022-12-08T12:52:50.502Z,79.78
2022-12-08T12:55:49.786Z,79.80
2022-12-08T12:58:41.044Z,80.35
2022-12-08T13:01:36.684Z,79.50
2022-12-08T13:04:07.455Z,79.97
2022-12-08T13:06:39.420Z,79.78
2022-12-08T13:09:07.336Z,80.85
2022-12-08T13:11:48.490Z,80.55
2022-12-08T13:14:33.989Z,79.75
2022-12-08T13:17:04.280Z,80.38
2022-12-08T13:19:33.102Z,80.43
2022-12-08T13:22:00.934Z,80.82
2022-12-08T13:24:32.544Z,80.00
2022-12-08T13:27:34.115Z,80.28
2022-12-08T13:30:34.175Z,79.97
2022-12-08T13:33:17.810Z,79.88
2022-12-08T13:35:50.454Z,80.57
2022-12-08T13:38:21.229Z,79.80
2022-12-08T13:40:50.469Z,79.85
2022-12-08T13:43:44.821Z,80.05
2022-12-08T13:58:02.833Z,79.75
2022-12-08T14:00:29.789Z,80.22
2022-12-08T14:02:58.613Z,80.03
2022-12-08T14:06:10.613Z,80.15
2022-12-08T14:08:58.964Z,80.03
2022-12-08T14:11:33.697Z,79.78
2022-12-08T14:14:03.472Z,80.10
2022-12-08T14:16:36.461Z,79.70
2022-12-08T14:19:22.390Z,79.95
2022-12-08T14:21:57.028Z,79.63
2022-12-08T14:24:24.869Z,80.20
2022-12-08T14:26:54.415Z,80.07
2022-12-08T14:29:43.766Z,79.90
2022-12-08T14:32:26.608Z,80.57
2022-12-08T14:34:55.935Z,80.20
2022-12-08T14:37:26.341Z,79.32
2022-12-08T14:39:57.161Z,79.80
2022-12-08T14:42:26.452Z,79.95
2022-12-08T14:45:00.665Z,79.53
2022-12-08T14:47:32.551Z,79.13
2022-12-08T14:50:00.174Z,80.20
2022-12-08T14:52:29.403Z,80.05
2022-12-08T14:54:58.198Z,79.88
2022-12-08T14:57:33.665Z,80.35
2022-12-08T15:00:09.193Z,79.97
2022-12-08T15:02:44.726Z,79.97
2022-12-08T15:05:14.885Z,79.95
2022-12-08T15:07:49.016Z,80.45
2022-12-08T15:10:27.655Z,80.05
2022-12-08T15:13:04.883Z,80.45
2022-12-08T15:15:45.886Z,81.95
2022-12-08T15:18:17.607Z,80.25
2022-12-08T15:20:47.276Z,80.35
2022-12-08T15:23:26.214Z,80.28
2022-12-08T15:25:54.011Z,80.65
2022-12-08T15:28:26.678Z,80.13
2022-12-08T15:30:57.277Z,81.43
2022-12-08T15:33:24.546Z,80.28
2022-12-08T15:35:51.845Z,79.95
2022-12-08T15:38:23.537Z,80.22
2022-12-08T15:40:50.683Z,80.03
2022-12-08T15:43:17.799Z,79.65
2022-12-08T15:45:57.904Z,80.22
2022-12-08T15:50:55.458Z,80.28
2022-12-08T15:53:23.730Z,79.70
2022-12-08T15:56:25.798Z,80.22
2022-12-08T15:58:53.499Z,79.63
2022-12-08T16:01:20.845Z,80.38
2022-12-08T16:09:29.925Z,80.32
2022-12-08T16:12:15.580Z,81.70
2022-12-08T16:17:31.658Z,80.13
2022-12-08T16:19:59.308Z,79.75
2022-12-08T16:25:19.950Z,79.95
2022-12-08T16:30:36.388Z,80.80
2022-12-08T16:33:03.383Z,80.43
2022-12-08T16:35:30.550Z,79.88
2022-12-08T16:37:58.125Z,80.53
2022-12-08T16:40:26.457Z,80.47
2022-12-08T16:42:53.554Z,79.80
2022-12-08T16:45:22.634Z,80.18
2022-12-08T16:47:51.451Z,80.10
2022-12-08T16:50:20.956Z,81.57
2022-12-08T16:52:48.445Z,80.72
2022-12-08T16:55:17.370Z,80.88
2022-12-08T16:57:47.293Z,80.97
2022-12-08T17:00:16.946Z,80.38
2022-12-08T17:02:45.220Z,81.20
2022-12-08T17:05:15.036Z,80.57
2022-12-08T17:07:42.633Z,81.35
2022-12-08T17:10:12.084Z,81.15
2022-12-08T17:12:39.324Z,79.72
2022-12-08T17:15:10.275Z,80.85
2022-12-08T17:17:37.544Z,80.28
2022-12-08T17:20:07.337Z,81.15
2022-12-08T17:22:35.603Z,81.90
2022-12-08T17:25:02.826Z,80.13
2022-12-08T17:27:30.021Z,80.70
2022-12-08T17:29:57.405Z,81.90
2022-12-08T17:32:26.086Z,80.13
2022-12-08T17:34:53.478Z,80.18
2022-12-08T17:37:20.450Z,80.90
2022-12-08T17:39:47.333Z,80.18
2022-12-08T17:42:14.412Z,80.57
2022-12-08T17:44:41.297Z,80.47
2022-12-08T17:47:08.216Z,80.43
2022-12-08T17:49:36.532Z,80.20
2022-12-08T17:52:06.725Z,80.45
2022-12-08T17:54:33.926Z,80.50
2022-12-08T17:57:00.882Z,79.68
2022-12-08T17:59:28.998Z,83.07
2022-12-08T18:01:57.351Z,80.15
2022-12-08T18:04:25.443Z,81.05
2022-12-08T18:06:54.914Z,81.95
2022-12-08T18:09:21.860Z,81.32
2022-12-08T18:11:48.922Z,80.15
2022-12-08T18:14:16.534Z,81.28
2022-12-08T18:16:45.919Z,81.00
2022-12-08T18:19:14.173Z,81.63
2022-12-08T18:21:41.584Z,80.60
2022-12-08T18:24:17.765Z,80.95
2022-12-08T18:26:44.745Z,81.82
2022-12-08T18:29:11.610Z,82.22
2022-12-08T18:31:38.592Z,81.00
2022-12-08T18:34:05.465Z,82.68
2022-12-08T18:36:32.393Z,81.00
2022-12-08T18:38:59.255Z,80.47
2022-12-08T18:41:28.353Z,81.20
2022-12-08T18:43:55.693Z,81.30
2022-12-08T18:46:23.630Z,81.43
2022-12-08T18:48:51.684Z,80.63
2022-12-08T18:51:20.419Z,80.95
2022-12-08T18:53:47.963Z,81.53
2022-12-08T18:56:23.285Z,81.40
2022-12-08T18:58:51.634Z,83.43
2022-12-08T19:01:18.668Z,81.90
2022-12-08T19:04:04.639Z,81.00
2022-12-08T19:06:32.749Z,80.97
2022-12-08T19:08:59.597Z,81.53
2022-12-08T19:11:28.070Z,81.82
2022-12-08T19:13:56.392Z,82.88
2022-12-08T19:16:23.499Z,82.45
2022-12-08T19:18:50.948Z,82.28
2022-12-08T19:21:17.970Z,82.68
2022-12-08T19:23:44.933Z,82.93
2022-12-08T19:26:12.297Z,82.28
2022-12-08T19:28:41.109Z,82.90
2022-12-08T19:31:10.246Z,82.15
2022-12-08T19:33:37.686Z,82.50
2022-12-08T19:36:06.466Z,81.72
2022-12-08T19:38:53.503Z,86.25
2022-12-08T19:41:38.978Z,82.38
2022-12-08T19:44:24.759Z,82.15
2022-12-08T19:46:53.184Z,83.70
2022-12-08T19:49:20.191Z,81.97
2022-12-08T19:51:47.118Z,82.93
2022-12-08T19:54:13.983Z,81.85
2022-12-08T19:56:40.860Z,84.03
2022-12-08T19:59:07.999Z,84.47
2022-12-08T20:01:35.048Z,82.72
2022-12-08T20:04:03.655Z,82.38
2022-12-08T20:06:30.986Z,83.90
2022-12-08T20:08:57.945Z,81.57
2022-12-08T20:11:24.802Z,81.60
2022-12-08T20:13:51.726Z,82.90
2022-12-08T20:16:18.725Z,81.43
2022-12-08T20:18:47.798Z,82.40
2022-12-08T20:21:16.426Z,82.18
2022-12-08T20:23:45.560Z,81.47
2022-12-08T20:26:13.285Z,83.10
2022-12-08T20:28:40.224Z,81.82
2022-12-08T20:31:07.264Z,81.70
2022-12-08T20:33:34.305Z,82.15
2022-12-08T20:36:03.466Z,81.35
2022-12-08T20:38:31.763Z,82.05
2022-12-08T20:40:59.374Z,81.53
2022-12-08T20:43:26.755Z,81.93
2022-12-08T20:45:53.635Z,81.80
2022-12-08T20:48:20.729Z,81.07
2022-12-08T20:50:50.549Z,82.30
2022-12-08T20:53:17.609Z,81.00
2022-12-08T20:55:46.006Z,80.85
2022-12-08T20:58:13.190Z,81.93
2022-12-08T21:00:40.208Z,81.97
2022-12-08T21:03:07.221Z,80.43
2022-12-08T21:05:36.278Z,81.07
2022-12-08T21:08:03.449Z,80.97
2022-12-08T21:10:30.369Z,82.75
2022-12-08T21:12:58.674Z,81.10
2022-12-08T21:15:26.836Z,81.32
2022-12-08T21:17:55.019Z,80.75
2022-12-08T21:20:22.571Z,80.35
2022-12-08T21:22:49.705Z,81.05
2022-12-08T21:25:17.111Z,80.60
2022-12-08T21:27:44.060Z,80.85
2022-12-08T21:30:13.900Z,81.22
2022-12-08T21:32:40.903Z,80.78
2022-12-08T21:35:08.976Z,80.72
2022-12-08T21:37:36.085Z,80.75
2022-12-08T21:40:04.053Z,82.20
2022-12-08T21:42:43.819Z,81.30
2022-12-08T21:45:14.526Z,81.57
2022-12-08T21:47:41.726Z,80.53
2022-12-08T21:50:10.411Z,81.35
2022-12-08T21:52:38.572Z,80.57
2022-12-08T21:55:07.164Z,80.85
2022-12-08T21:57:34.584Z,81.57
2022-12-08T22:00:01.771Z,81.25
2022-12-08T22:02:32.698Z,83.72
2022-12-08T22:04:59.894Z,82.15
2022-12-08T22:07:26.918Z,81.57
2022-12-08T22:09:53.862Z,82.57
2022-12-08T22:12:21.223Z,82.03
2022-12-08T22:14:51.009Z,81.10
2022-12-08T22:17:18.717Z,85.20
2022-12-08T22:19:47.254Z,81.25
2022-12-08T22:22:14.430Z,82.28
2022-12-08T22:24:41.391Z,81.32
2022-12-08T22:27:08.305Z,82.57
2022-12-08T22:29:35.295Z,82.15
2022-12-08T22:32:02.384Z,81.80
2022-12-08T22:34:29.552Z,83.20
2022-12-08T22:36:57.913Z,82.45
2022-12-08T22:39:24.887Z,81.43
2022-12-08T22:41:52.603Z,82.72
2022-12-08T22:44:19.626Z,80.93
2022-12-08T22:46:46.702Z,82.13
2022-12-08T22:49:13.709Z,80.97
2022-12-08T22:51:40.728Z,82.03
2022-12-08T22:54:10.055Z,81.22
2022-12-08T22:56:37.179Z,82.38
2022-12-08T22:59:04.486Z,81.03
2022-12-08T23:01:33.212Z,81.30
2022-12-08T23:04:00.872Z,80.45
2022-12-08T23:06:29.772Z,80.82
2022-12-08T23:08:57.875Z,82.00
2022-12-08T23:11:29.710Z,81.30
2022-12-08T23:13:59.872Z,81.32
2022-12-08T23:16:27.446Z,80.68
2022-12-08T23:18:55.011Z,81.05
2022-12-08T23:21:22.376Z,80.65
2022-12-08T23:23:49.537Z,81.22
2022-12-08T23:26:19.026Z,81.10
2022-12-08T23:28:47.541Z,80.78
2022-12-08T23:31:15.444Z,81.95
2022-12-08T23:33:42.716Z,80.75
2022-12-08T23:36:10.721Z,80.63
2022-12-08T23:38:38.118Z,80.47
2022-12-08T23:41:07.773Z,80.93
2022-12-08T23:43:35.595Z,81.03
2022-12-08T23:46:04.406Z,80.90
2022-12-08T23:48:34.633Z,80.85
2022-12-08T23:51:02.218Z,81.63
2022-12-08T23:53:29.465Z,81.22
2022-12-08T23:55:59.754Z,81.18
2022-12-08T23:58:26.967Z,81.63
